Etihad Airways Virtual Airport Information Service

Hong Kong International Airport

ICAO: VHHH Country: Hong Kong
Latitude: 22.3089 Longitude: 113.915
Latest Arrival : QTR818 (OTHH-VHHH) Latest Departure : QTR815 (VHHH-OTHH)


WX CaptureLIVE
Data provided by noaa.gov | Recorded at 21:58:21

METAR : VHHH 182130Z 04004KT 9999 FEW018 28/25 Q1011 NOSIG

TAF : VHHH 181700Z 1818/1924 11010KT 9999 FEW025 TX33/1906Z TN28/1822Z TN29/1922Z TEMPO 1900/1906 4000 SHRA FEW010CB SCT020 TEMPO 1921/1924 VRB05KT


Runway Data for VHHH
Data provided by openaviationdata.com

Runway ID Mag Var Hdg Length Elevation Surface ILS Freq ILS Id ILS Slope

Hong Kong International Airport, Hong Kong
Use only for reference purposes